createdAt,value
2018-05-04T00:00:35.692Z,98764.27
2018-05-04T00:02:12.067Z,98703.70
2018-05-04T00:03:48.746Z,98738.00
2018-05-04T00:05:25.339Z,98738.91
2018-05-04T00:07:01.581Z,98694.04
2018-05-04T00:08:37.893Z,98714.77
2018-05-04T00:10:14.701Z,98755.13
2018-05-04T00:11:51.832Z,98733.94
2018-05-04T00:13:28.097Z,98802.50
2018-05-04T00:15:04.872Z,98811.64
2018-05-04T00:16:41.673Z,98825.31
2018-05-04T00:18:18.459Z,98815.61
2018-05-04T00:19:55.579Z,98791.91
2018-05-04T00:21:31.892Z,98729.67
2018-05-04T00:23:08.132Z,98702.80
2018-05-04T00:24:44.473Z,98724.91
2018-05-04T00:26:21.190Z,98710.81
2018-05-04T00:27:57.616Z,98721.41
2018-05-04T00:29:34.525Z,98759.06
2018-05-04T00:31:10.905Z,98754.62
2018-05-04T00:32:47.930Z,98695.41
2018-05-04T00:34:24.193Z,98646.77
2018-05-04T00:36:00.949Z,98540.73
2018-05-04T00:37:37.238Z,98469.34
2018-05-04T00:39:20.144Z,98515.80
2018-05-04T00:40:56.434Z,98478.93
2018-05-04T00:42:34.226Z,98464.95
2018-05-04T00:44:10.621Z,98475.47
2018-05-04T00:45:46.889Z,98455.77
2018-05-04T00:47:24.091Z,98408.83
2018-05-04T00:49:00.661Z,98402.28
2018-05-04T00:50:37.022Z,98352.89
2018-05-04T00:52:13.715Z,98389.20
2018-05-04T00:54:03.137Z,98420.27
2018-05-04T00:55:39.992Z,98404.14
2018-05-04T00:57:16.336Z,98389.17
2018-05-04T00:58:54.274Z,98429.99
2018-05-04T01:00:30.855Z,98478.60
2018-05-04T01:02:07.562Z,98432.95
2018-05-04T01:03:44.765Z,98351.23
2018-05-04T01:05:21.228Z,98365.59
2018-05-04T01:06:57.511Z,98401.08
2018-05-04T01:08:33.935Z,98399.32
2018-05-04T01:10:10.453Z,98405.95
2018-05-04T01:11:47.036Z,98516.31
2018-05-04T01:13:23.519Z,98534.72
2018-05-04T01:15:00.398Z,98559.66
2018-05-04T01:16:36.941Z,98597.75
2018-05-04T01:18:13.558Z,98624.56
2018-05-04T01:19:50.149Z,98397.23
2018-05-04T01:21:26.974Z,98463.77
2018-05-04T01:23:03.212Z,98476.44
2018-05-04T01:24:39.510Z,98441.80
2018-05-04T01:26:16.468Z,98382.77
2018-05-04T01:27:53.268Z,98390.28
2018-05-04T01:29:30.265Z,98486.48
2018-05-04T01:31:06.632Z,98485.16
2018-05-04T01:32:42.876Z,98534.36
2018-05-04T01:34:19.516Z,98547.00
2018-05-04T01:35:56.550Z,98563.65
2018-05-04T01:37:33.386Z,98417.36
2018-05-04T01:39:09.616Z,98356.56
2018-05-04T01:40:46.159Z,98356.06
2018-05-04T01:42:22.922Z,98420.84
2018-05-04T01:43:59.748Z,98392.48
2018-05-04T01:45:36.036Z,98513.32
2018-05-04T01:47:12.680Z,98563.72
2018-05-04T01:48:49.971Z,98540.45
2018-05-04T01:50:27.255Z,98543.94
2018-05-04T01:52:04.121Z,98513.83
2018-05-04T01:53:40.341Z,98525.17
2018-05-04T01:55:16.712Z,98574.61
2018-05-04T01:56:52.967Z,98614.97
2018-05-04T01:58:29.301Z,98655.70
2018-05-04T02:00:06.464Z,98609.73
2018-05-04T02:01:43.053Z,98654.41
2018-05-04T02:03:19.722Z,98631.63
2018-05-04T02:04:56.409Z,98514.66
2018-05-04T02:06:33.413Z,98456.89
2018-05-04T02:08:10.257Z,98445.87
2018-05-04T02:09:47.621Z,98449.00
2018-05-04T02:11:24.116Z,98551.91
2018-05-04T02:13:01.751Z,98519.05
2018-05-04T02:14:38.407Z,98432.37
2018-05-04T02:16:14.905Z,98483.61
2018-05-04T02:17:51.144Z,98538.28
2018-05-04T02:19:27.758Z,98559.76
2018-05-04T02:21:04.809Z,98458.58
2018-05-04T02:22:41.037Z,98441.98
2018-05-04T02:24:17.291Z,98515.13
2018-05-04T02:25:54.659Z,98563.33
2018-05-04T02:27:31.657Z,98540.16
2018-05-04T02:29:07.963Z,98375.02
2018-05-04T02:30:44.240Z,98466.11
2018-05-04T02:32:21.684Z,98514.83
2018-05-04T02:33:57.999Z,98470.86
2018-05-04T02:35:34.263Z,98405.77
2018-05-04T02:37:10.592Z,98495.92
2018-05-04T02:38:47.185Z,98545.13
2018-05-04T02:40:23.472Z,98477.52
2018-05-04T02:42:03.738Z,98478.38
2018-05-04T02:43:40.068Z,98423.33
2018-05-04T02:45:19.453Z,98437.30
2018-05-04T02:46:57.311Z,98525.75
2018-05-04T02:48:33.562Z,98511.80
2018-05-04T02:50:09.789Z,98491.63
2018-05-04T02:51:46.469Z,98548.95
2018-05-04T02:53:23.395Z,98556.05
2018-05-04T02:54:59.622Z,98637.06
2018-05-04T02:56:35.912Z,98679.67
2018-05-04T02:58:12.485Z,98747.21
2018-05-04T02:59:48.740Z,98757.72
2018-05-04T03:01:25.805Z,98720.45
2018-05-04T03:03:02.077Z,98748.98
2018-05-04T03:04:38.433Z,98732.78
2018-05-04T03:06:15.595Z,98626.64
2018-05-04T03:07:51.807Z,98592.03
2018-05-04T03:09:28.987Z,98637.23
2018-05-04T03:11:06.470Z,98553.48
2018-05-04T03:12:42.784Z,98486.41
2018-05-04T03:14:19.684Z,98468.41
2018-05-04T03:15:55.924Z,98456.27
2018-05-04T03:17:32.587Z,98453.20
2018-05-04T03:19:08.825Z,98412.95
2018-05-04T03:20:45.938Z,98321.95
2018-05-04T03:22:22.248Z,98159.66
2018-05-04T03:23:59.660Z,98068.36
2018-05-04T03:25:35.939Z,98046.52
2018-05-04T03:27:12.272Z,98001.20
2018-05-04T03:28:48.620Z,97937.41
2018-05-04T03:30:27.611Z,97940.45
2018-05-04T03:32:03.923Z,97953.09
2018-05-04T03:33:40.139Z,97910.84
2018-05-04T03:35:16.328Z,97930.41
2018-05-04T03:36:53.277Z,97884.62
2018-05-04T03:38:29.795Z,97918.64
2018-05-04T03:40:06.267Z,97919.96
2018-05-04T03:41:43.202Z,97912.03
2018-05-04T03:43:20.800Z,97924.73
2018-05-04T03:44:57.792Z,97948.75
2018-05-04T03:46:34.082Z,98028.78
2018-05-04T03:48:10.373Z,98136.66
2018-05-04T03:49:46.578Z,98212.64
2018-05-04T03:51:22.813Z,98256.77
2018-05-04T03:53:00.197Z,98345.19
2018-05-04T03:54:36.487Z,98363.91
2018-05-04T03:56:13.554Z,98412.56
2018-05-04T04:00:10.086Z,98464.19
2018-05-04T04:03:05.244Z,98474.31
2018-05-04T04:04:41.500Z,98334.75
2018-05-04T04:06:17.692Z,98294.92
2018-05-04T04:07:54.293Z,98350.38
2018-05-04T04:09:31.340Z,98382.80
2018-05-04T04:11:07.709Z,98434.98
2018-05-04T04:12:43.962Z,98434.52
2018-05-04T04:14:20.517Z,98431.56
2018-05-04T04:15:56.760Z,98424.08
2018-05-04T04:17:33.071Z,98428.08
2018-05-04T04:19:10.155Z,98488.89
2018-05-04T04:20:46.902Z,98632.21
2018-05-04T04:22:23.210Z,98746.13
2018-05-04T04:23:59.497Z,98749.72
2018-05-04T04:25:35.780Z,98841.41
2018-05-04T04:27:12.522Z,99012.73
2018-05-04T04:28:48.947Z,99066.42
2018-05-04T04:30:27.504Z,99153.87
2018-05-04T04:32:04.082Z,99175.45
2018-05-04T04:33:40.822Z,99295.62
2018-05-04T04:35:17.113Z,99369.10
2018-05-04T04:36:53.417Z,99452.80
2018-05-04T04:38:29.668Z,99604.87
2018-05-04T04:40:07.626Z,99667.97
2018-05-04T04:41:43.905Z,99469.16
2018-05-04T04:43:20.134Z,99421.63
2018-05-04T04:44:56.343Z,99359.52
2018-05-04T04:46:33.058Z,99484.18
2018-05-04T04:48:09.315Z,99322.06
2018-05-04T04:49:45.630Z,99267.56
2018-05-04T04:51:21.873Z,99342.40
2018-05-04T04:52:58.462Z,99447.66
2018-05-04T04:54:34.688Z,99639.41
2018-05-04T04:56:10.909Z,99854.36
2018-05-04T04:57:47.152Z,99959.94
2018-05-04T04:59:23.759Z,100033.77
2018-05-04T05:01:00.096Z,99906.06
2018-05-04T05:02:36.322Z,99943.77
2018-05-04T05:04:12.581Z,100143.58
2018-05-04T05:05:49.699Z,100292.69
2018-05-04T05:07:26.053Z,100544.06
2018-05-04T05:09:02.337Z,100702.02
2018-05-04T05:10:39.413Z,100896.53
2018-05-04T05:12:16.169Z,100996.56
2018-05-04T05:13:52.421Z,100943.22
2018-05-04T05:15:28.752Z,100721.98
2018-05-04T05:17:04.997Z,100477.12
2018-05-04T05:18:41.676Z,100274.15
2018-05-04T05:20:17.999Z,100143.14
2018-05-04T05:21:54.516Z,100049.80
2018-05-04T05:23:30.801Z,99930.91
2018-05-04T05:25:07.532Z,99874.77
2018-05-04T05:26:44.484Z,99916.34
2018-05-04T05:28:20.786Z,99907.08
2018-05-04T05:29:57.022Z,99934.47
2018-05-04T05:31:34.913Z,100019.87
2018-05-04T05:33:12.017Z,100038.28
2018-05-04T05:34:48.401Z,100146.23
2018-05-04T05:36:24.767Z,100305.23
2018-05-04T05:38:01.421Z,100447.06
2018-05-04T05:39:37.838Z,100558.73
2018-05-04T05:41:14.165Z,100613.76
2018-05-04T05:42:50.656Z,100672.39
2018-05-04T05:44:27.224Z,100789.16
2018-05-04T05:46:03.750Z,100946.03
2018-05-04T05:47:40.235Z,101018.52
2018-05-04T05:49:16.546Z,101122.52
2018-05-04T05:50:53.657Z,101159.13
2018-05-04T05:52:29.977Z,101092.36
2018-05-04T05:54:06.682Z,101047.47
2018-05-04T05:55:43.750Z,100871.78
2018-05-04T05:57:22.266Z,100600.06
2018-05-04T05:58:58.665Z,100461.79
2018-05-04T06:00:35.386Z,100332.42
2018-05-04T06:02:12.316Z,100217.66
2018-05-04T06:03:49.040Z,100180.50
2018-05-04T06:05:26.144Z,100101.71
2018-05-04T06:07:02.519Z,100145.93
2018-05-04T06:08:38.940Z,100185.81
2018-05-04T06:12:00.449Z,100381.59
2018-05-04T06:13:36.875Z,100487.51
2018-05-04T06:15:16.189Z,100565.60
2018-05-04T06:16:53.854Z,100669.84
2018-05-04T06:18:30.181Z,100729.80
2018-05-04T06:20:07.318Z,100757.30
2018-05-04T06:21:43.778Z,100805.72
2018-05-04T06:23:21.278Z,100881.73
2018-05-04T06:24:57.691Z,100986.17
2018-05-04T06:26:34.064Z,101027.96
2018-05-04T06:28:10.546Z,101012.39
2018-05-04T06:29:47.608Z,101044.83
2018-05-04T06:31:23.928Z,101124.95
2018-05-04T06:33:00.229Z,101234.95
2018-05-04T06:34:36.686Z,101289.31
2018-05-04T06:36:13.077Z,101240.31
2018-05-04T06:37:50.221Z,101181.06
2018-05-04T06:39:26.464Z,101232.77
2018-05-04T06:41:02.868Z,101102.32
2018-05-04T06:42:39.583Z,101194.93
2018-05-04T06:44:16.093Z,101288.90
2018-05-04T06:45:52.571Z,101312.48
2018-05-04T06:47:29.657Z,101340.51
2018-05-04T06:49:06.251Z,101153.94
2018-05-04T06:50:43.487Z,100879.55
2018-05-04T06:52:20.519Z,101018.27
2018-05-04T06:53:56.836Z,101118.34
2018-05-04T06:55:33.610Z,101056.02
2018-05-04T06:57:11.471Z,101055.16
2018-05-04T06:58:47.792Z,101184.68
2018-05-04T07:00:24.867Z,101200.68
2018-05-04T07:02:02.646Z,101077.89
2018-05-04T07:03:39.117Z,100861.36
2018-05-04T07:05:15.935Z,100934.28
2018-05-04T07:06:52.352Z,100785.83
2018-05-04T07:08:29.979Z,100977.39
2018-05-04T07:10:06.354Z,101239.45
2018-05-04T07:11:42.984Z,101483.64
2018-05-04T07:13:19.344Z,101655.52
2018-05-04T07:14:57.614Z,101605.50
2018-05-04T07:16:35.822Z,101746.66
2018-05-04T07:18:14.772Z,101714.42
2018-05-04T07:19:53.070Z,101759.12
2018-05-04T07:21:29.779Z,101769.83
2018-05-04T07:23:06.117Z,101859.17
2018-05-04T07:24:43.355Z,101736.31
2018-05-04T07:26:20.774Z,101617.93
2018-05-04T07:27:58.519Z,101465.81
2018-05-04T07:29:34.822Z,101426.64
2018-05-04T07:31:11.151Z,101361.95
2018-05-04T07:32:47.473Z,101376.70
2018-05-04T07:34:26.092Z,101472.09
2018-05-04T07:36:02.580Z,101549.29
2018-05-04T07:37:39.813Z,101522.97
2018-05-04T07:39:17.051Z,101514.47
2018-05-04T07:40:53.924Z,101377.14
2018-05-04T07:42:30.294Z,101121.53
2018-05-04T07:44:06.703Z,101000.49
2018-05-04T07:45:43.029Z,101034.80
2018-05-04T07:47:20.165Z,101027.21
2018-05-04T07:48:56.966Z,101165.55
2018-05-04T07:50:34.094Z,101283.51
2018-05-04T07:52:10.410Z,101017.82
2018-05-04T07:53:47.434Z,100862.23
2018-05-04T07:55:23.900Z,100819.56
2018-05-04T07:57:01.434Z,100978.20
2018-05-04T07:58:37.846Z,100946.63
2018-05-04T08:00:18.043Z,101136.13
2018-05-04T08:01:54.804Z,101272.30
2018-05-04T08:03:43.452Z,101187.75
2018-05-04T08:05:21.877Z,101315.08
2018-05-04T08:06:58.565Z,101136.59
2018-05-04T08:08:34.929Z,100978.64
2018-05-04T08:10:12.189Z,100955.54
2018-05-04T08:11:48.659Z,101163.27
2018-05-04T08:13:25.115Z,101213.60
2018-05-04T08:15:03.277Z,101255.39
2018-05-04T08:16:39.579Z,101082.66
2018-05-04T08:18:16.713Z,100976.35
2018-05-04T08:19:53.193Z,101071.05
2018-05-04T08:21:29.636Z,100956.34
2018-05-04T08:23:06.464Z,100836.81
2018-05-04T08:24:42.838Z,100816.84
2018-05-04T08:26:19.282Z,100937.67
2018-05-04T08:27:56.567Z,100975.06
2018-05-04T08:29:33.207Z,100977.67
2018-05-04T08:31:09.640Z,100816.33
2018-05-04T08:32:46.431Z,100965.23
2018-05-04T08:34:22.965Z,101037.20
2018-05-04T08:35:59.943Z,101171.65
2018-05-04T08:37:36.321Z,101191.20
2018-05-04T08:39:13.505Z,101183.70
2018-05-04T08:40:50.083Z,101084.78
2018-05-04T08:42:27.746Z,101013.28
2018-05-04T08:44:04.290Z,100955.84
2018-05-04T08:45:41.622Z,101005.27
2018-05-04T08:47:17.967Z,100929.62
2018-05-04T08:48:54.810Z,101071.86
2018-05-04T08:50:31.082Z,101161.80
2018-05-04T08:52:07.676Z,101051.88
2018-05-04T08:53:44.231Z,100864.26
2018-05-04T08:55:21.040Z,100980.30
2018-05-04T08:56:57.537Z,100994.93
2018-05-04T08:58:33.843Z,101050.09
2018-05-04T09:00:10.388Z,101023.87
2018-05-04T09:01:50.833Z,100917.09
2018-05-04T09:03:27.091Z,100941.99
2018-05-04T09:05:03.662Z,101047.45
2018-05-04T09:06:40.006Z,100922.42
2018-05-04T09:08:16.593Z,100937.12
2018-05-04T09:09:52.934Z,100931.30
2018-05-04T09:11:29.321Z,100859.34
2018-05-04T09:13:06.692Z,100830.48
2018-05-04T09:14:44.178Z,100819.39
2018-05-04T09:16:21.235Z,100786.47
2018-05-04T09:17:57.596Z,100715.88
2018-05-04T09:19:33.926Z,100699.47
2018-05-04T09:21:10.626Z,100857.99
2018-05-04T09:22:47.112Z,101041.13
2018-05-04T09:24:24.767Z,101050.02
2018-05-04T09:26:01.188Z,100978.81
2018-05-04T09:27:37.637Z,100889.00
2018-05-04T09:29:13.978Z,100956.59
2018-05-04T09:30:50.491Z,100915.66
2018-05-04T09:32:27.943Z,100811.75
2018-05-04T09:34:05.317Z,100699.38
2018-05-04T09:35:41.718Z,100659.93
2018-05-04T09:37:18.323Z,100766.83
2018-05-04T09:38:54.615Z,100813.03
2018-05-04T09:40:31.205Z,100821.50
2018-05-04T09:42:07.721Z,100690.87
2018-05-04T09:43:44.095Z,100678.52
2018-05-04T09:45:20.967Z,100852.47
2018-05-04T09:46:58.884Z,101016.63
2018-05-04T09:48:35.533Z,101158.98
2018-05-04T09:50:11.895Z,101226.20
2018-05-04T09:51:48.311Z,101172.28
2018-05-04T09:53:25.824Z,101056.63
2018-05-04T09:55:02.201Z,100877.81
2018-05-04T09:56:38.560Z,100866.25
2018-05-04T09:58:14.904Z,100911.58
2018-05-04T09:59:51.597Z,100932.94
2018-05-04T10:01:28.231Z,100922.22
2018-05-04T10:03:04.739Z,101078.38
2018-05-04T10:04:42.048Z,100960.09
2018-05-04T10:06:18.621Z,101069.50
2018-05-04T10:07:57.841Z,101045.44
2018-05-04T10:09:34.196Z,101023.64
2018-05-04T10:12:59.267Z,101146.02
2018-05-04T10:14:36.477Z,101173.14
2018-05-04T10:16:13.129Z,101169.14
2018-05-04T10:17:49.563Z,101168.68
2018-05-04T10:19:26.197Z,101219.92
2018-05-04T10:21:02.734Z,101285.77
2018-05-04T10:22:39.890Z,101324.58
2018-05-04T10:24:16.315Z,101384.28
2018-05-04T10:25:52.963Z,101311.61
2018-05-04T10:27:29.296Z,101264.84
2018-05-04T10:29:05.967Z,101164.20
2018-05-04T10:30:42.808Z,101122.38
2018-05-04T10:32:19.923Z,100868.42
2018-05-04T10:33:56.344Z,100883.98
2018-05-04T10:35:33.377Z,101054.77
2018-05-04T10:37:09.843Z,101230.06
2018-05-04T10:38:46.628Z,101247.00
2018-05-04T10:40:23.215Z,101316.48
2018-05-04T10:42:00.338Z,101287.55
2018-05-04T10:43:37.006Z,101398.07
2018-05-04T10:45:16.329Z,101424.81
2018-05-04T10:46:54.719Z,101451.56
2018-05-04T10:48:32.094Z,101410.06
2018-05-04T10:50:09.398Z,101435.02
2018-05-04T10:51:46.065Z,101246.05
2018-05-04T10:53:22.432Z,101265.66
2018-05-04T10:54:58.868Z,101317.35
2018-05-04T10:56:36.002Z,101388.16
2018-05-04T10:58:12.691Z,101341.41
2018-05-04T10:59:49.193Z,101297.70
2018-05-04T11:01:25.720Z,101238.44
2018-05-04T11:03:03.066Z,101300.33
2018-05-04T11:04:41.614Z,101411.83
2018-05-04T11:06:17.977Z,101495.65
2018-05-04T11:07:55.984Z,101581.29
2018-05-04T11:09:32.370Z,101553.55
2018-05-04T11:11:10.429Z,101518.33
2018-05-04T11:12:47.712Z,101563.41
2018-05-04T11:14:25.453Z,101635.26
2018-05-04T11:16:02.718Z,101620.52
2018-05-04T11:17:40.338Z,101473.73
2018-05-04T11:19:16.896Z,101400.18
2018-05-04T11:20:54.074Z,101487.96
2018-05-04T11:22:30.605Z,101476.87
2018-05-04T11:24:07.696Z,101547.26
2018-05-04T11:25:44.126Z,101556.25
2018-05-04T11:27:20.846Z,101617.79
2018-05-04T11:28:57.331Z,101722.33
2018-05-04T11:30:34.526Z,101798.66
2018-05-04T11:32:11.039Z,101786.17
2018-05-04T11:33:49.128Z,101716.46
2018-05-04T11:35:25.644Z,101657.04
2018-05-04T11:37:02.399Z,101607.92
2018-05-04T11:38:39.486Z,101637.43
2018-05-04T11:40:15.941Z,101607.96
2018-05-04T11:41:52.417Z,101479.94
2018-05-04T11:43:29.509Z,101473.68
2018-05-04T11:45:07.635Z,101508.81
2018-05-04T11:46:44.813Z,101343.49
2018-05-04T11:48:21.336Z,101256.14
2018-05-04T11:49:58.255Z,101248.59
2018-05-04T11:51:34.886Z,101174.18
2018-05-04T11:53:17.372Z,101223.20
2018-05-04T11:54:53.847Z,101310.53
2018-05-04T11:56:30.595Z,101402.73
2018-05-04T11:58:06.976Z,101357.23
2018-05-04T11:59:43.401Z,101388.43
2018-05-04T12:01:20.153Z,101454.47
2018-05-04T12:02:56.885Z,101587.36
2018-05-04T12:04:38.369Z,101703.88
2018-05-04T12:06:15.080Z,101337.63
2018-05-04T12:07:51.817Z,101168.33
2018-05-04T12:09:28.516Z,101175.06
2018-05-04T12:11:04.881Z,101218.24
2018-05-04T12:12:41.224Z,101419.20
2018-05-04T12:14:17.644Z,101601.12
2018-05-04T12:16:10.483Z,101471.77
2018-05-04T12:17:47.054Z,101593.50
2018-05-04T12:19:23.470Z,101568.97
2018-05-04T12:20:59.944Z,101663.18
2018-05-04T12:22:36.891Z,101717.20
2018-05-04T12:24:13.582Z,101754.67
2018-05-04T12:25:50.670Z,101771.24
2018-05-04T12:27:27.041Z,101716.27
2018-05-04T12:29:04.367Z,101500.70
2018-05-04T12:30:40.976Z,101367.33
2018-05-04T12:32:17.542Z,101527.00
2018-05-04T12:33:53.884Z,101654.25
2018-05-04T12:35:31.422Z,101707.34
2018-05-04T12:37:07.813Z,101689.48
2018-05-04T12:38:44.900Z,101415.48
2018-05-04T12:40:21.262Z,101358.92
2018-05-04T12:41:59.182Z,101455.64
2018-05-04T12:43:35.973Z,101601.52
2018-05-04T12:45:16.960Z,101604.17
2018-05-04T12:46:53.508Z,101677.86
2018-05-04T12:48:30.273Z,101777.44
2018-05-04T12:50:06.934Z,101765.76
2018-05-04T12:51:43.377Z,101713.11
2018-05-04T12:53:19.735Z,101609.11
2018-05-04T12:54:57.156Z,101623.83
2018-05-04T12:56:33.551Z,101647.00
2018-05-04T12:58:10.015Z,101566.52
2018-05-04T12:59:47.322Z,101538.94
2018-05-04T13:01:24.574Z,101499.67
2018-05-04T13:03:00.943Z,101507.24
2018-05-04T13:04:37.562Z,101480.06
2018-05-04T13:06:14.379Z,101316.48
2018-05-04T13:07:51.400Z,101398.52
2018-05-04T13:09:28.134Z,101402.91
2018-05-04T13:11:04.525Z,101406.52
2018-05-04T13:12:41.061Z,101509.92
2018-05-04T13:14:18.433Z,101544.69
2018-05-04T13:15:55.579Z,101526.84
2018-05-04T13:17:31.902Z,101523.23
2018-05-04T13:19:09.402Z,101651.82
2018-05-04T13:20:46.096Z,101733.97
2018-05-04T13:22:22.510Z,101684.86
2018-05-04T13:23:58.886Z,101725.97
2018-05-04T13:25:35.973Z,101801.86
2018-05-04T13:27:12.992Z,101720.14
2018-05-04T13:28:49.396Z,101723.27
2018-05-04T13:30:25.975Z,101598.66
2018-05-04T13:32:02.312Z,101562.91
2018-05-04T13:33:39.383Z,101570.48
2018-05-04T13:35:16.010Z,101506.27
2018-05-04T13:36:52.336Z,101642.88
2018-05-04T13:38:28.722Z,101632.63
2018-05-04T13:40:05.498Z,101630.42
2018-05-04T13:41:41.890Z,101618.28
2018-05-04T13:43:18.393Z,101644.18
2018-05-04T13:44:55.519Z,101593.25
2018-05-04T13:46:32.252Z,101396.11
2018-05-04T13:48:09.409Z,101256.63
2018-05-04T13:49:46.543Z,101272.69
2018-05-04T13:51:23.021Z,101401.88
2018-05-04T13:53:00.365Z,101510.66
2018-05-04T13:54:36.901Z,101434.03
2018-05-04T13:56:13.210Z,101536.98
2018-05-04T13:57:49.638Z,101503.06
2018-05-04T13:59:26.519Z,101516.89
2018-05-04T14:01:02.960Z,101576.65
2018-05-04T14:02:39.870Z,101573.11
2018-05-04T14:04:16.325Z,101604.31
2018-05-04T14:05:53.625Z,101608.34
2018-05-04T14:07:30.927Z,101584.25
2018-05-04T14:09:12.844Z,101645.41
2018-05-04T14:10:52.211Z,101746.34
2018-05-04T14:12:28.835Z,101796.78
2018-05-04T14:14:05.287Z,101875.86
2018-05-04T14:15:41.742Z,101816.87
2018-05-04T14:17:18.635Z,101849.97
2018-05-04T14:18:55.556Z,101840.59
2018-05-04T14:20:32.011Z,101775.34
2018-05-04T14:22:08.426Z,101617.23
2018-05-04T14:23:44.819Z,101515.91
2018-05-04T14:25:22.347Z,101610.59
2018-05-04T14:26:58.762Z,101665.00
2018-05-04T14:28:36.068Z,101740.92
2018-05-04T14:30:14.680Z,101669.07
2018-05-04T14:31:51.402Z,101666.30
2018-05-04T14:33:27.760Z,101750.22
2018-05-04T14:35:04.141Z,101806.13
2018-05-04T14:36:40.558Z,101826.67
2018-05-04T14:38:17.301Z,101750.23
2018-05-04T14:39:54.604Z,101776.11
2018-05-04T14:41:31.590Z,101744.39
2018-05-04T14:43:08.005Z,101722.06
2018-05-04T14:44:44.680Z,101655.11
2018-05-04T14:46:21.859Z,101724.33
2018-05-04T14:47:58.293Z,101740.39
2018-05-04T14:49:34.729Z,101643.55
2018-05-04T14:51:11.521Z,101643.97
2018-05-04T14:52:47.939Z,101627.42
2018-05-04T14:54:24.573Z,101690.83
2018-05-04T14:56:02.390Z,101671.20
2018-05-04T14:57:39.930Z,101627.04
2018-05-04T14:59:16.493Z,101668.95
2018-05-04T15:00:53.227Z,101705.09
2018-05-04T15:02:30.751Z,101696.13
2018-05-04T15:04:07.616Z,101713.12
2018-05-04T15:05:44.699Z,101725.59
2018-05-04T15:07:21.352Z,101693.48
2018-05-04T15:08:58.868Z,101718.92
2018-05-04T15:10:35.664Z,101752.39
2018-05-04T15:12:12.201Z,101723.33
2018-05-04T15:13:48.536Z,101574.17
2018-05-04T15:15:25.164Z,101636.30
2018-05-04T15:17:03.103Z,101604.56
2018-05-04T15:18:39.561Z,101572.89
2018-05-04T15:20:16.303Z,101560.38
2018-05-04T15:21:53.634Z,101651.44
2018-05-04T15:23:30.326Z,101554.09
2018-05-04T15:25:07.527Z,101542.95
2018-05-04T15:26:43.950Z,101420.67
2018-05-04T15:28:20.603Z,101461.21
2018-05-04T15:29:57.859Z,101595.13
2018-05-04T15:31:34.510Z,101558.05
2018-05-04T15:33:10.946Z,101544.28
2018-05-04T15:34:47.374Z,101529.05
2018-05-04T15:36:24.229Z,101426.02
2018-05-04T15:38:01.560Z,101397.12
2018-05-04T15:39:38.037Z,101373.90
2018-05-04T15:41:15.243Z,101362.77
2018-05-04T15:42:51.999Z,101464.33
2018-05-04T15:44:29.502Z,101427.81
2018-05-04T15:46:08.978Z,101504.13
2018-05-04T15:47:45.297Z,101389.87
2018-05-04T15:49:23.038Z,101470.13
2018-05-04T15:51:04.225Z,101526.33
2018-05-04T15:52:40.686Z,101557.59
2018-05-04T15:54:16.976Z,101503.53
2018-05-04T15:56:03.672Z,101619.10
2018-05-04T15:57:40.968Z,101658.02
2018-05-04T15:59:17.239Z,101677.66
2018-05-04T16:00:53.767Z,101739.27
2018-05-04T16:02:31.251Z,101670.52
2018-05-04T16:04:08.395Z,101723.13
2018-05-04T16:05:44.860Z,101666.04
2018-05-04T16:07:21.339Z,101610.17
2018-05-04T16:08:59.279Z,101622.20
2018-05-04T16:10:35.732Z,101690.53
2018-05-04T16:12:12.343Z,101751.70
2018-05-04T16:13:48.732Z,101686.09
2018-05-04T16:15:25.631Z,101640.48
2018-05-04T16:17:02.032Z,101618.61
2018-05-04T16:18:38.489Z,101624.91
2018-05-04T16:20:14.952Z,101544.99
2018-05-04T16:21:51.596Z,101492.73
2018-05-04T16:23:28.117Z,101585.14
2018-05-04T16:25:06.363Z,101592.70
2018-05-04T16:26:42.796Z,101587.84
2018-05-04T16:28:19.503Z,101636.42
2018-05-04T16:29:56.843Z,101487.83
2018-05-04T16:31:34.246Z,101440.13
2018-05-04T16:33:10.837Z,101482.00
2018-05-04T16:34:47.516Z,101544.04
2018-05-04T16:36:24.920Z,101516.36
2018-05-04T16:38:01.313Z,101523.11
2018-05-04T16:39:37.718Z,101506.98
2018-05-04T16:41:15.947Z,101523.06
2018-05-04T16:42:53.089Z,101545.39
2018-05-04T16:44:30.222Z,101501.65
2018-05-04T16:46:06.729Z,101512.28
2018-05-04T16:47:48.418Z,101539.98
2018-05-04T16:49:27.226Z,101613.16
2018-05-04T16:51:03.595Z,101596.21
2018-05-04T16:52:39.948Z,101592.64
2018-05-04T16:54:17.148Z,101554.23
2018-05-04T16:55:56.050Z,101557.38
2018-05-04T16:57:32.522Z,101442.68
2018-05-04T16:59:09.659Z,101475.72
2018-05-04T17:00:49.359Z,101480.99
2018-05-04T17:02:26.309Z,101509.14
2018-05-04T17:04:03.499Z,101569.41
2018-05-04T17:05:40.860Z,101534.58
2018-05-04T17:07:18.354Z,101493.55
2018-05-04T17:08:54.733Z,101447.56
2018-05-04T17:10:31.335Z,101437.34
2018-05-04T17:12:07.864Z,101344.16
2018-05-04T17:13:44.599Z,101415.91
2018-05-04T17:15:21.091Z,101500.62
2018-05-04T17:16:57.668Z,101541.63
2018-05-04T17:18:34.863Z,101510.05
2018-05-04T17:20:11.622Z,101490.81
2018-05-04T17:23:31.285Z,101462.27
2018-05-04T17:25:07.687Z,101387.44
2018-05-04T17:26:44.546Z,101424.75
2018-05-04T17:28:21.116Z,101329.88
2018-05-04T17:29:57.756Z,101329.47
2018-05-04T17:31:34.564Z,101300.94
2018-05-04T17:33:11.311Z,101409.16
2018-05-04T17:34:47.607Z,101408.73
2018-05-04T17:36:24.509Z,101414.50
2018-05-04T17:38:01.652Z,101405.17
2018-05-04T17:39:38.631Z,101420.77
2018-05-04T17:41:14.929Z,101393.57
2018-05-04T17:42:51.985Z,101382.89
2018-05-04T17:44:28.371Z,101383.75
2018-05-04T17:46:05.345Z,101352.52
2018-05-04T17:47:41.769Z,101280.41
2018-05-04T17:49:18.276Z,101277.28
2018-05-04T17:50:54.558Z,101304.89
2018-05-04T17:52:31.011Z,101257.70
2018-05-04T17:54:07.281Z,101358.77
2018-05-04T17:55:43.625Z,101370.36
2018-05-04T17:57:19.987Z,101361.03
2018-05-04T17:58:56.289Z,101408.22
2018-05-04T18:00:33.694Z,101436.81
2018-05-04T18:02:09.986Z,101271.00
2018-05-04T18:03:46.773Z,101314.25
2018-05-04T18:05:23.326Z,101377.05
2018-05-04T18:06:59.681Z,101404.63
2018-05-04T18:08:36.035Z,101409.55
2018-05-04T18:10:12.901Z,101336.09
2018-05-04T18:11:49.305Z,101256.39
2018-05-04T18:13:31.333Z,101325.39
2018-05-04T18:15:08.392Z,101350.34
2018-05-04T18:16:46.262Z,101308.86
2018-05-04T18:18:24.776Z,101367.24
2018-05-04T18:20:01.168Z,101272.32
2018-05-04T18:21:38.205Z,101299.55
2018-05-04T18:23:14.930Z,101177.03
2018-05-04T18:24:52.290Z,101235.29
2018-05-04T18:26:29.092Z,101320.02
2018-05-04T18:28:06.131Z,101335.10
2018-05-04T18:29:43.030Z,101328.45
2018-05-04T18:31:19.566Z,101313.72
2018-05-04T18:32:55.948Z,101089.78
2018-05-04T18:34:32.248Z,101089.25
2018-05-04T18:36:09.122Z,101041.26
2018-05-04T18:37:45.581Z,101077.74
2018-05-04T18:39:21.962Z,101191.27
2018-05-04T18:40:58.334Z,101115.02
2018-05-04T18:42:35.140Z,101111.55